sensor_id;sensor_type;location;lat;lon;timestamp;pressure;altitude;pressure_sealevel;temperature;humidity
64679;BME280;51094;53.864;27.676;2023-01-30T00:01:44;98496.34;;;-0.98;90.05
64679;BME280;51094;53.864;27.676;2023-01-30T00:04:12;98519.31;;;-0.98;90.16
64679;BME280;51094;53.864;27.676;2023-01-30T00:06:42;98295.88;;;-2.19;89.75
64679;BME280;51094;53.864;27.676;2023-01-30T00:09:13;98369.44;;;-1.63;89.60
64679;BME280;51094;53.864;27.676;2023-01-30T00:11:42;98487.78;;;-0.97;89.23
64679;BME280;51094;53.864;27.676;2023-01-30T00:14:09;98508.22;;;-0.97;89.74
64679;BME280;51094;53.864;27.676;2023-01-30T00:16:36;98453.72;;;-1.19;89.79
64679;BME280;51094;53.864;27.676;2023-01-30T00:19:03;98337.72;;;-2.03;90.26
64679;BME280;51094;53.864;27.676;2023-01-30T00:21:29;98396.97;;;-1.48;90.23
64679;BME280;51094;53.864;27.676;2023-01-30T00:23:56;98477.47;;;-0.94;90.53
64679;BME280;51094;53.864;27.676;2023-01-30T00:26:25;98304.50;;;-1.99;90.13
64679;BME280;51094;53.864;27.676;2023-01-30T00:28:52;98370.69;;;-1.50;89.80
64679;BME280;51094;53.864;27.676;2023-01-30T00:31:19;98479.25;;;-0.96;89.45
64679;BME280;51094;53.864;27.676;2023-01-30T00:33:46;98472.31;;;-0.92;89.39
64679;BME280;51094;53.864;27.676;2023-01-30T00:36:13;98465.53;;;-0.93;89.64
64679;BME280;51094;53.864;27.676;2023-01-30T00:38:40;98304.69;;;-1.81;89.27
64679;BME280;51094;53.864;27.676;2023-01-30T00:41:07;98382.22;;;-1.40;89.39
64679;BME280;51094;53.864;27.676;2023-01-30T00:43:36;98445.06;;;-0.92;89.22
64679;BME280;51094;53.864;27.676;2023-01-30T00:46:31;98441.97;;;-1.00;89.46
64679;BME280;51094;53.864;27.676;2023-01-30T00:49:18;98440.31;;;-1.01;89.61
64679;BME280;51094;53.864;27.676;2023-01-30T00:51:45;98477.34;;;-1.14;89.49
64679;BME280;51094;53.864;27.676;2023-01-30T00:54:12;98361.59;;;-1.57;89.30
64679;BME280;51094;53.864;27.676;2023-01-30T00:56:39;98330.00;;;-1.76;89.24
64679;BME280;51094;53.864;27.676;2023-01-30T00:59:06;98270.09;;;-2.11;89.96
64679;BME280;51094;53.864;27.676;2023-01-30T01:01:32;98430.31;;;-1.07;89.96
64679;BME280;51094;53.864;27.676;2023-01-30T01:04:00;98319.16;;;-1.81;90.13
64679;BME280;51094;53.864;27.676;2023-01-30T01:06:27;98413.63;;;-1.16;90.36
64679;BME280;51094;53.864;27.676;2023-01-30T01:08:54;98297.31;;;-1.88;90.31
64679;BME280;51094;53.864;27.676;2023-01-30T01:11:21;98231.94;;;-2.36;90.52
64679;BME280;51094;53.864;27.676;2023-01-30T01:13:55;98372.38;;;-1.27;90.86
64679;BME280;51094;53.864;27.676;2023-01-30T01:16:23;98403.97;;;-1.08;90.04
64679;BME280;51094;53.864;27.676;2023-01-30T01:18:51;98265.84;;;-1.87;89.74
64679;BME280;51094;53.864;27.676;2023-01-30T01:21:18;98371.09;;;-1.15;89.46
64679;BME280;51094;53.864;27.676;2023-01-30T01:23:56;98383.03;;;-0.94;89.96
64679;BME280;51094;53.864;27.676;2023-01-30T01:26:23;98349.72;;;-1.13;89.02
64679;BME280;51094;53.864;27.676;2023-01-30T01:28:54;98297.97;;;-1.60;88.53
64679;BME280;51094;53.864;27.676;2023-01-30T01:31:21;98262.59;;;-1.69;88.60
64679;BME280;51094;53.864;27.676;2023-01-30T01:33:50;98350.66;;;-0.92;88.88
64679;BME280;51094;53.864;27.676;2023-01-30T01:36:17;98211.69;;;-1.71;88.51
64679;BME280;51094;53.864;27.676;2023-01-30T01:39:04;98308.81;;;-1.10;88.51
64679;BME280;51094;53.864;27.676;2023-01-30T01:41:31;98216.28;;;-1.79;88.35
64679;BME280;51094;53.864;27.676;2023-01-30T01:46:50;98337.63;;;-0.86;88.42
64679;BME280;51094;53.864;27.676;2023-01-30T01:49:26;98326.78;;;-0.91;88.33
64679;BME280;51094;53.864;27.676;2023-01-30T01:57:06;98090.44;;;-2.42;87.65
64679;BME280;51094;53.864;27.676;2023-01-30T01:59:58;98347.25;;;-1.14;88.37
64679;BME280;51094;53.864;27.676;2023-01-30T02:02:27;98284.00;;;-1.06;87.90
64679;BME280;51094;53.864;27.676;2023-01-30T02:04:57;98309.81;;;-0.92;88.10
64679;BME280;51094;53.864;27.676;2023-01-30T02:07:42;98326.84;;;-0.92;88.12
64679;BME280;51094;53.864;27.676;2023-01-30T02:10:17;98281.44;;;-1.06;88.21
64679;BME280;51094;53.864;27.676;2023-01-30T02:12:45;98256.97;;;-1.32;88.21
64679;BME280;51094;53.864;27.676;2023-01-30T02:15:13;98285.13;;;-0.91;88.55
64679;BME280;51094;53.864;27.676;2023-01-30T02:17:41;98056.88;;;-2.29;88.24
64679;BME280;51094;53.864;27.676;2023-01-30T02:20:34;98267.25;;;-0.91;88.48
64679;BME280;51094;53.864;27.676;2023-01-30T02:41:11;98277.53;;;-0.93;88.80
64679;BME280;51094;53.864;27.676;2023-01-30T02:44:03;98231.91;;;-1.01;89.12
64679;BME280;51094;53.864;27.676;2023-01-30T02:46:59;98228.44;;;-0.99;89.41
64679;BME280;51094;53.864;27.676;2023-01-30T02:49:31;98220.75;;;-0.98;89.27
64679;BME280;51094;53.864;27.676;2023-01-30T02:52:01;98126.03;;;-1.53;89.08
64679;BME280;51094;53.864;27.676;2023-01-30T02:54:30;98201.75;;;-0.91;88.86
64679;BME280;51094;53.864;27.676;2023-01-30T02:56:58;98202.75;;;-0.95;89.04
64679;BME280;51094;53.864;27.676;2023-01-30T02:59:38;98093.91;;;-1.57;89.30
64679;BME280;51094;53.864;27.676;2023-01-30T03:05:05;98195.34;;;-1.01;89.95
64679;BME280;51094;53.864;27.676;2023-01-30T03:13:10;98103.16;;;-1.54;90.83
64679;BME280;51094;53.864;27.676;2023-01-30T03:15:48;98169.56;;;-0.95;90.87
64679;BME280;51094;53.864;27.676;2023-01-30T03:18:20;98054.00;;;-1.78;90.60
64679;BME280;51094;53.864;27.676;2023-01-30T03:20:47;98159.88;;;-1.07;91.28
64679;BME280;51094;53.864;27.676;2023-01-30T03:23:14;98167.72;;;-1.12;91.89
64679;BME280;51094;53.864;27.676;2023-01-30T03:25:42;98044.59;;;-1.76;92.25
64679;BME280;51094;53.864;27.676;2023-01-30T03:28:11;98076.06;;;-1.57;92.23
64679;BME280;51094;53.864;27.676;2023-01-30T03:30:40;98053.72;;;-1.72;92.31
64679;BME280;51094;53.864;27.676;2023-01-30T03:33:08;98012.72;;;-1.86;92.20
64679;BME280;51094;53.864;27.676;2023-01-30T03:35:37;98120.84;;;-1.09;92.17
64679;BME280;51094;53.864;27.676;2023-01-30T03:38:05;98048.47;;;-1.47;92.09
64679;BME280;51094;53.864;27.676;2023-01-30T03:40:33;98005.13;;;-1.68;92.31
64679;BME280;51094;53.864;27.676;2023-01-30T03:43:00;98105.66;;;-0.92;92.25
64679;BME280;51094;53.864;27.676;2023-01-30T03:45:27;98099.84;;;-0.95;91.83
64679;BME280;51094;53.864;27.676;2023-01-30T03:47:54;98091.50;;;-0.99;91.48
64679;BME280;51094;53.864;27.676;2023-01-30T03:50:21;98082.06;;;-0.97;91.23
64679;BME280;51094;53.864;27.676;2023-01-30T03:52:47;98045.31;;;-1.13;91.29
64679;BME280;51094;53.864;27.676;2023-01-30T03:55:18;98046.91;;;-1.11;90.85
64679;BME280;51094;53.864;27.676;2023-01-30T03:57:45;97909.28;;;-1.90;91.15
64679;BME280;51094;53.864;27.676;2023-01-30T04:00:14;98075.78;;;-0.90;90.24
64679;BME280;51094;53.864;27.676;2023-01-30T04:02:47;98062.47;;;-1.17;89.90
64679;BME280;51094;53.864;27.676;2023-01-30T04:05:16;98041.00;;;-1.11;89.78
64679;BME280;51094;53.864;27.676;2023-01-30T04:07:49;97944.09;;;-1.71;89.98
64679;BME280;51094;53.864;27.676;2023-01-30T04:10:17;97988.44;;;-1.34;90.15
64679;BME280;51094;53.864;27.676;2023-01-30T04:12:46;98066.75;;;-0.97;89.34
64679;BME280;51094;53.864;27.676;2023-01-30T04:15:13;98064.06;;;-0.94;89.44
64679;BME280;51094;53.864;27.676;2023-01-30T04:17:46;98042.75;;;-0.93;89.49
64679;BME280;51094;53.864;27.676;2023-01-30T04:20:32;98048.56;;;-0.89;89.20
64679;BME280;51094;53.864;27.676;2023-01-30T04:22:59;98040.13;;;-0.91;89.29
64679;BME280;51094;53.864;27.676;2023-01-30T04:25:26;98043.38;;;-0.88;89.51
64679;BME280;51094;53.864;27.676;2023-01-30T04:27:53;97994.75;;;-1.04;89.80
64679;BME280;51094;53.864;27.676;2023-01-30T04:30:24;98023.78;;;-0.87;90.11
64679;BME280;51094;53.864;27.676;2023-01-30T04:33:01;98038.41;;;-0.91;90.49
64679;BME280;51094;53.864;27.676;2023-01-30T04:35:27;97924.63;;;-1.53;90.59
64679;BME280;51094;53.864;27.676;2023-01-30T04:37:54;97950.13;;;-1.32;90.93
64679;BME280;51094;53.864;27.676;2023-01-30T04:40:21;97931.19;;;-1.47;90.91
64679;BME280;51094;53.864;27.676;2023-01-30T04:42:48;97984.16;;;-1.15;90.74
64679;BME280;51094;53.864;27.676;2023-01-30T04:45:33;98020.25;;;-1.04;90.93
64679;BME280;51094;53.864;27.676;2023-01-30T04:48:00;97979.22;;;-0.99;91.66
64679;BME280;51094;53.864;27.676;2023-01-30T04:50:28;97942.38;;;-1.12;91.51
64679;BME280;51094;53.864;27.676;2023-01-30T04:52:55;97946.88;;;-1.17;90.64
64679;BME280;51094;53.864;27.676;2023-01-30T04:55:22;97933.09;;;-1.13;90.27
64679;BME280;51094;53.864;27.676;2023-01-30T04:57:49;97962.75;;;-0.92;90.29
64679;BME280;51094;53.864;27.676;2023-01-30T05:00:16;97903.22;;;-1.11;90.19
64679;BME280;51094;53.864;27.676;2023-01-30T05:02:50;97777.69;;;-1.91;89.78
64679;BME280;51094;53.864;27.676;2023-01-30T05:05:17;97875.84;;;-1.26;89.80
64679;BME280;51094;53.864;27.676;2023-01-30T05:07:44;97943.47;;;-0.80;89.14
64679;BME280;51094;53.864;27.676;2023-01-30T05:10:11;97938.38;;;-0.80;89.23
64679;BME280;51094;53.864;27.676;2023-01-30T05:12:38;97938.31;;;-0.79;89.04
64679;BME280;51094;53.864;27.676;2023-01-30T05:15:05;97920.88;;;-0.88;88.78
64679;BME280;51094;53.864;27.676;2023-01-30T05:17:33;97824.19;;;-1.49;88.36
64679;BME280;51094;53.864;27.676;2023-01-30T05:20:00;97821.28;;;-1.41;88.39
64679;BME280;51094;53.864;27.676;2023-01-30T05:22:27;97926.88;;;-0.89;89.04
64679;BME280;51094;53.864;27.676;2023-01-30T05:24:54;97931.75;;;-0.84;88.91
64679;BME280;51094;53.864;27.676;2023-01-30T05:27:21;97828.75;;;-1.37;88.72
64679;BME280;51094;53.864;27.676;2023-01-30T05:29:48;97923.50;;;-0.89;89.06
64679;BME280;51094;53.864;27.676;2023-01-30T05:32:16;97891.50;;;-1.15;88.81
64679;BME280;51094;53.864;27.676;2023-01-30T05:34:43;97548.31;;;-3.20;89.03
64679;BME280;51094;53.864;27.676;2023-01-30T05:37:11;97888.41;;;-1.03;89.36
64679;BME280;51094;53.864;27.676;2023-01-30T05:39:38;97792.91;;;-1.52;89.97
64679;BME280;51094;53.864;27.676;2023-01-30T05:42:05;97839.94;;;-1.22;90.85
64679;BME280;51094;53.864;27.676;2023-01-30T05:44:31;97893.38;;;-1.00;91.73
64679;BME280;51094;53.864;27.676;2023-01-30T05:46:58;97877.75;;;-1.30;92.32
64679;BME280;51094;53.864;27.676;2023-01-30T05:49:25;97696.16;;;-2.29;93.18
64679;BME280;51094;53.864;27.676;2023-01-30T05:51:52;97535.31;;;-3.32;93.36
64679;BME280;51094;53.864;27.676;2023-01-30T05:54:19;97832.28;;;-1.22;94.22
64679;BME280;51094;53.864;27.676;2023-01-30T05:56:49;97801.09;;;-1.46;93.90
64679;BME280;51094;53.864;27.676;2023-01-30T05:59:16;97867.31;;;-1.07;94.16
64679;BME280;51094;53.864;27.676;2023-01-30T06:01:46;97860.47;;;-1.06;94.84
64679;BME280;51094;53.864;27.676;2023-01-30T06:04:13;97826.81;;;-1.31;95.08
64679;BME280;51094;53.864;27.676;2023-01-30T06:06:40;97816.16;;;-1.22;95.37
64679;BME280;51094;53.864;27.676;2023-01-30T06:09:09;97823.06;;;-1.24;95.31
64679;BME280;51094;53.864;27.676;2023-01-30T06:11:37;97746.88;;;-1.68;95.51
64679;BME280;51094;53.864;27.676;2023-01-30T06:14:04;97777.88;;;-1.40;95.63
64679;BME280;51094;53.864;27.676;2023-01-30T06:16:31;97834.75;;;-1.02;95.65
64679;BME280;51094;53.864;27.676;2023-01-30T06:18:58;97779.00;;;-1.45;95.02
64679;BME280;51094;53.864;27.676;2023-01-30T06:21:25;97790.66;;;-1.22;94.97
64679;BME280;51094;53.864;27.676;2023-01-30T06:23:52;97802.38;;;-1.18;94.99
64679;BME280;51094;53.864;27.676;2023-01-30T06:26:18;97829.22;;;-0.92;95.06
64679;BME280;51094;53.864;27.676;2023-01-30T06:28:45;97828.34;;;-0.91;95.35
64679;BME280;51094;53.864;27.676;2023-01-30T06:31:12;97737.44;;;-1.66;94.79
64679;BME280;51094;53.864;27.676;2023-01-30T06:33:39;97752.19;;;-1.35;94.58
64679;BME280;51094;53.864;27.676;2023-01-30T06:36:06;97767.00;;;-1.07;94.62
64679;BME280;51094;53.864;27.676;2023-01-30T06:38:34;97710.28;;;-1.48;94.22
64679;BME280;51094;53.864;27.676;2023-01-30T06:41:01;97765.84;;;-1.19;94.03
64679;BME280;51094;53.864;27.676;2023-01-30T06:43:28;97703.28;;;-1.62;92.44
64679;BME280;51094;53.864;27.676;2023-01-30T06:45:57;97783.72;;;-0.84;93.04
64679;BME280;51094;53.864;27.676;2023-01-30T06:48:26;97728.69;;;-1.24;92.55
64679;BME280;51094;53.864;27.676;2023-01-30T06:50:53;97786.13;;;-0.81;92.29
64679;BME280;51094;53.864;27.676;2023-01-30T06:53:21;97686.91;;;-1.39;91.62
64679;BME280;51094;53.864;27.676;2023-01-30T06:55:51;97772.41;;;-0.79;92.15
64679;BME280;51094;53.864;27.676;2023-01-30T06:58:17;97632.34;;;-1.71;91.96
64679;BME280;51094;53.864;27.676;2023-01-30T07:00:44;97631.00;;;-1.78;91.27
64679;BME280;51094;53.864;27.676;2023-01-30T07:03:13;97841.94;;;-0.74;91.85
64679;BME280;51094;53.864;27.676;2023-01-30T07:05:42;97755.09;;;-0.89;90.75
64679;BME280;51094;53.864;27.676;2023-01-30T07:08:09;97742.78;;;-0.98;90.50
64679;BME280;51094;53.864;27.676;2023-01-30T07:10:36;97765.50;;;-0.77;90.37
64679;BME280;51094;53.864;27.676;2023-01-30T07:13:03;97752.59;;;-0.74;90.23
64679;BME280;51094;53.864;27.676;2023-01-30T07:15:31;97726.25;;;-0.91;90.44
64679;BME280;51094;53.864;27.676;2023-01-30T07:17:58;97760.09;;;-0.71;90.49
64679;BME280;51094;53.864;27.676;2023-01-30T07:20:25;97672.91;;;-1.13;89.82
64679;BME280;51094;53.864;27.676;2023-01-30T07:22:53;97671.84;;;-1.26;90.04
64679;BME280;51094;53.864;27.676;2023-01-30T07:25:22;97613.03;;;-1.58;90.25
64679;BME280;51094;53.864;27.676;2023-01-30T07:27:58;97615.38;;;-1.53;89.81
64679;BME280;51094;53.864;27.676;2023-01-30T07:30:26;97627.72;;;-1.28;89.47
64679;BME280;51094;53.864;27.676;2023-01-30T07:32:55;97548.16;;;-2.04;89.23
64679;BME280;51094;53.864;27.676;2023-01-30T07:35:28;97720.09;;;-0.70;89.85
64679;BME280;51094;53.864;27.676;2023-01-30T07:37:55;97715.72;;;-0.68;90.12
64679;BME280;51094;53.864;27.676;2023-01-30T07:40:22;97749.59;;;-0.64;90.43
64679;BME280;51094;53.864;27.676;2023-01-30T07:42:56;97705.28;;;-0.63;89.65
64679;BME280;51094;53.864;27.676;2023-01-30T07:45:24;97694.47;;;-0.69;90.57
64679;BME280;51094;53.864;27.676;2023-01-30T07:47:52;97574.56;;;-1.53;89.51
64679;BME280;51094;53.864;27.676;2023-01-30T07:50:19;97640.13;;;-1.04;89.06
64679;BME280;51094;53.864;27.676;2023-01-30T07:52:46;97710.25;;;-0.60;89.47
64679;BME280;51094;53.864;27.676;2023-01-30T07:55:13;97695.38;;;-0.70;89.00
64679;BME280;51094;53.864;27.676;2023-01-30T07:57:40;97222.59;;;-4.03;89.03
64679;BME280;51094;53.864;27.676;2023-01-30T08:00:07;97528.31;;;-1.63;88.84
64679;BME280;51094;53.864;27.676;2023-01-30T08:02:36;97664.59;;;-0.67;88.41
64679;BME280;51094;53.864;27.676;2023-01-30T08:05:03;97663.38;;;-0.59;88.66
64679;BME280;51094;53.864;27.676;2023-01-30T08:07:32;97655.06;;;-0.63;88.40
64679;BME280;51094;53.864;27.676;2023-01-30T08:09:59;97661.81;;;-0.62;88.19
64679;BME280;51094;53.864;27.676;2023-01-30T08:12:26;97652.59;;;-0.64;88.07
64679;BME280;51094;53.864;27.676;2023-01-30T08:14:53;97351.84;;;-2.51;87.82
64679;BME280;51094;53.864;27.676;2023-01-30T08:17:20;97574.97;;;-0.93;88.51
64679;BME280;51094;53.864;27.676;2023-01-30T08:19:50;97517.53;;;-1.18;88.14
64679;BME280;51094;53.864;27.676;2023-01-30T08:22:19;97588.31;;;-0.88;88.04
64679;BME280;51094;53.864;27.676;2023-01-30T08:24:49;97599.38;;;-0.72;87.88
64679;BME280;51094;53.864;27.676;2023-01-30T08:27:16;97631.69;;;-0.55;87.83
64679;BME280;51094;53.864;27.676;2023-01-30T08:29:43;97629.56;;;-0.47;88.11
64679;BME280;51094;53.864;27.676;2023-01-30T08:32:10;97604.72;;;-0.77;88.04
64679;BME280;51094;53.864;27.676;2023-01-30T08:34:40;97357.88;;;-2.02;87.35
64679;BME280;51094;53.864;27.676;2023-01-30T08:37:07;97403.66;;;-1.83;87.47
64679;BME280;51094;53.864;27.676;2023-01-30T08:39:34;97619.91;;;-0.58;88.57
64679;BME280;51094;53.864;27.676;2023-01-30T08:42:02;97640.13;;;-0.71;89.86
64679;BME280;51094;53.864;27.676;2023-01-30T08:44:29;97632.72;;;-0.75;90.63
64679;BME280;51094;53.864;27.676;2023-01-30T08:46:56;97600.19;;;-0.72;91.48
64679;BME280;51094;53.864;27.676;2023-01-30T08:49:23;97605.16;;;-0.69;91.63
64679;BME280;51094;53.864;27.676;2023-01-30T08:51:50;97589.31;;;-0.75;91.72
64679;BME280;51094;53.864;27.676;2023-01-30T08:54:17;97486.16;;;-1.36;92.68
64679;BME280;51094;53.864;27.676;2023-01-30T08:56:45;97453.50;;;-1.62;93.23
64679;BME280;51094;53.864;27.676;2023-01-30T08:59:13;97441.00;;;-1.67;94.04
64679;BME280;51094;53.864;27.676;2023-01-30T09:01:40;97380.44;;;-1.94;94.66
64679;BME280;51094;53.864;27.676;2023-01-30T09:04:07;97514.59;;;-1.10;95.10
64679;BME280;51094;53.864;27.676;2023-01-30T09:06:33;97547.41;;;-0.87;95.92
64679;BME280;51094;53.864;27.676;2023-01-30T09:09:00;97468.09;;;-1.31;96.23
64679;BME280;51094;53.864;27.676;2023-01-30T09:11:27;97535.22;;;-0.82;96.07
64679;BME280;51094;53.864;27.676;2023-01-30T09:13:55;97374.66;;;-1.98;95.71
64679;BME280;51094;53.864;27.676;2023-01-30T09:16:22;97390.44;;;-1.74;96.30
64679;BME280;51094;53.864;27.676;2023-01-30T09:18:48;97538.59;;;-0.81;96.49
64679;BME280;51094;53.864;27.676;2023-01-30T09:21:15;97317.72;;;-2.30;95.89
64679;BME280;51094;53.864;27.676;2023-01-30T09:23:42;97373.84;;;-1.65;96.47
64679;BME280;51094;53.864;27.676;2023-01-30T09:26:09;97303.47;;;-2.17;96.58
64679;BME280;51094;53.864;27.676;2023-01-30T09:28:36;97499.91;;;-0.74;96.53
64679;BME280;51094;53.864;27.676;2023-01-30T09:31:03;97308.78;;;-1.88;96.74
64679;BME280;51094;53.864;27.676;2023-01-30T09:33:31;97479.81;;;-0.80;96.30
64679;BME280;51094;53.864;27.676;2023-01-30T09:35:57;97228.19;;;-2.38;96.11
64679;BME280;51094;53.864;27.676;2023-01-30T09:38:24;97277.88;;;-1.98;96.50
64679;BME280;51094;53.864;27.676;2023-01-30T09:47:11;97471.34;;;-0.80;96.40
64679;BME280;51094;53.864;27.676;2023-01-30T09:49:51;97471.91;;;-0.75;96.43
64679;BME280;51094;53.864;27.676;2023-01-30T09:54:47;97397.16;;;-1.24;96.17
64679;BME280;51094;53.864;27.676;2023-01-30T09:57:24;97467.97;;;-0.81;96.71
64679;BME280;51094;53.864;27.676;2023-01-30T10:00:10;97443.94;;;-0.77;96.21
64679;BME280;51094;53.864;27.676;2023-01-30T10:05:50;97376.44;;;-1.18;96.43
64679;BME280;51094;53.864;27.676;2023-01-30T10:11:34;97416.75;;;-0.78;95.86
64679;BME280;51094;53.864;27.676;2023-01-30T10:14:21;97408.19;;;-0.77;95.98
64679;BME280;51094;53.864;27.676;2023-01-30T10:27:53;97395.03;;;-0.85;96.16
64679;BME280;51094;53.864;27.676;2023-01-30T10:30:22;97363.13;;;-1.08;96.38
64679;BME280;51094;53.864;27.676;2023-01-30T10:32:57;97381.13;;;-1.11;96.00
64679;BME280;51094;53.864;27.676;2023-01-30T10:35:36;97402.75;;;-0.86;96.35
64679;BME280;51094;53.864;27.676;2023-01-30T10:38:27;97393.66;;;-0.90;96.40
64679;BME280;51094;53.864;27.676;2023-01-30T10:41:02;97202.13;;;-1.94;96.26
64679;BME280;51094;53.864;27.676;2023-01-30T10:43:35;97398.22;;;-0.81;96.43
64679;BME280;51094;53.864;27.676;2023-01-30T10:49:24;97367.59;;;-0.81;96.16
64679;BME280;51094;53.864;27.676;2023-01-30T10:55:08;97364.97;;;-0.80;96.31
64679;BME280;51094;53.864;27.676;2023-01-30T10:57:46;97366.63;;;-0.79;96.52
64679;BME280;51094;53.864;27.676;2023-01-30T11:00:28;97316.13;;;-1.04;96.49
64679;BME280;51094;53.864;27.676;2023-01-30T11:05:43;97318.03;;;-1.07;96.88
64679;BME280;51094;53.864;27.676;2023-01-30T11:08:22;97279.53;;;-1.18;97.06
64679;BME280;51094;53.864;27.676;2023-01-30T11:10:51;97351.31;;;-0.79;96.45
64679;BME280;51094;53.864;27.676;2023-01-30T11:13:20;97251.78;;;-1.39;96.44
64679;BME280;51094;53.864;27.676;2023-01-30T11:15:52;97194.75;;;-1.83;96.37
64679;BME280;51094;53.864;27.676;2023-01-30T11:18:20;97336.34;;;-0.85;95.96
64679;BME280;51094;53.864;27.676;2023-01-30T11:21:14;97295.81;;;-1.05;95.87
64679;BME280;51094;53.864;27.676;2023-01-30T11:23:43;97158.19;;;-1.82;95.78
64679;BME280;51094;53.864;27.676;2023-01-30T11:26:28;97273.69;;;-1.20;96.30
64679;BME280;51094;53.864;27.676;2023-01-30T11:29:29;97304.63;;;-0.81;96.45
64679;BME280;51094;53.864;27.676;2023-01-30T11:32:01;97161.38;;;-1.79;96.92
64679;BME280;51094;53.864;27.676;2023-01-30T11:34:28;97204.81;;;-1.50;97.31
64679;BME280;51094;53.864;27.676;2023-01-30T11:37:22;97302.34;;;-0.85;97.31
64679;BME280;51094;53.864;27.676;2023-01-30T11:39:51;97299.53;;;-0.81;97.81
64679;BME280;51094;53.864;27.676;2023-01-30T11:42:23;97213.28;;;-1.34;97.89
64679;BME280;51094;53.864;27.676;2023-01-30T11:44:58;97284.69;;;-0.74;97.73
64679;BME280;51094;53.864;27.676;2023-01-30T11:47:49;97282.81;;;-0.71;98.03
64679;BME280;51094;53.864;27.676;2023-01-30T11:50:28;97269.88;;;-0.68;98.26
64679;BME280;51094;53.864;27.676;2023-01-30T11:53:04;97285.44;;;-0.72;97.93
64679;BME280;51094;53.864;27.676;2023-01-30T11:55:35;97190.34;;;-1.20;98.24
64679;BME280;51094;53.864;27.676;2023-01-30T11:58:06;97110.19;;;-1.60;98.33
64679;BME280;51094;53.864;27.676;2023-01-30T12:00:40;97261.13;;;-0.63;98.38
64679;BME280;51094;53.864;27.676;2023-01-30T12:03:15;97100.25;;;-1.64;97.83
64679;BME280;51094;53.864;27.676;2023-01-30T12:05:46;97256.66;;;-0.60;98.21
64679;BME280;51094;53.864;27.676;2023-01-30T12:10:58;97250.41;;;-0.54;98.72
64679;BME280;51094;53.864;27.676;2023-01-30T12:13:35;97249.91;;;-0.61;98.26
64679;BME280;51094;53.864;27.676;2023-01-30T12:16:40;97306.56;;;-0.54;98.83
64679;BME280;51094;53.864;27.676;2023-01-30T12:19:06;97077.06;;;-1.74;98.18
64679;BME280;51094;53.864;27.676;2023-01-30T12:21:51;97258.91;;;-0.70;97.94
64679;BME280;51094;53.864;27.676;2023-01-30T12:24:25;97210.28;;;-0.96;97.63
64679;BME280;51094;53.864;27.676;2023-01-30T12:27:45;97180.75;;;-1.01;98.10
64679;BME280;51094;53.864;27.676;2023-01-30T12:31:36;97221.91;;;-0.77;97.90
64679;BME280;51094;53.864;27.676;2023-01-30T12:34:09;96825.78;;;-3.55;97.69
64679;BME280;51094;53.864;27.676;2023-01-30T12:37:02;97229.81;;;-0.81;97.98
64679;BME280;51094;53.864;27.676;2023-01-30T12:39:59;97223.44;;;-0.88;98.24
64679;BME280;51094;53.864;27.676;2023-01-30T12:46:01;96945.31;;;-2.62;98.22
64679;BME280;51094;53.864;27.676;2023-01-30T12:48:51;97217.44;;;-0.73;99.14
64679;BME280;51094;53.864;27.676;2023-01-30T12:59:55;97225.00;;;-0.72;98.97
64679;BME280;51094;53.864;27.676;2023-01-30T13:10:47;97209.41;;;-0.81;98.77
64679;BME280;51094;53.864;27.676;2023-01-30T13:16:14;97047.91;;;-2.00;98.90
64679;BME280;51094;53.864;27.676;2023-01-30T13:18:55;97214.59;;;-0.83;99.07
64679;BME280;51094;53.864;27.676;2023-01-30T13:21:59;97199.66;;;-0.89;99.25
64679;BME280;51094;53.864;27.676;2023-01-30T13:27:20;97227.91;;;-0.92;98.70
64679;BME280;51094;53.864;27.676;2023-01-30T13:29:48;97174.06;;;-1.17;98.97
64679;BME280;51094;53.864;27.676;2023-01-30T13:34:56;97199.84;;;-0.92;99.00
64679;BME280;51094;53.864;27.676;2023-01-30T13:37:25;97193.78;;;-1.05;98.77
64679;BME280;51094;53.864;27.676;2023-01-30T13:39:58;97105.88;;;-1.44;98.76
64679;BME280;51094;53.864;27.676;2023-01-30T13:42:36;97208.22;;;-0.90;98.80
64679;BME280;51094;53.864;27.676;2023-01-30T13:45:25;97178.44;;;-0.89;98.72
64679;BME280;51094;53.864;27.676;2023-01-30T13:53:30;97171.69;;;-0.90;98.36
64679;BME280;51094;53.864;27.676;2023-01-30T14:09:46;97091.13;;;-1.53;98.39
64679;BME280;51094;53.864;27.676;2023-01-30T14:12:24;97172.31;;;-0.87;98.27
64679;BME280;51094;53.864;27.676;2023-01-30T14:20:34;97185.69;;;-0.97;97.88
64679;BME280;51094;53.864;27.676;2023-01-30T14:23:19;97174.75;;;-0.99;97.86
64679;BME280;51094;53.864;27.676;2023-01-30T14:25:56;97190.97;;;-1.01;97.93
64679;BME280;51094;53.864;27.676;2023-01-30T14:30:57;96939.66;;;-2.37;97.73
64679;BME280;51094;53.864;27.676;2023-01-30T14:46:06;97186.50;;;-0.97;97.60
64679;BME280;51094;53.864;27.676;2023-01-30T15:04:20;97110.47;;;-1.35;97.35
64679;BME280;51094;53.864;27.676;2023-01-30T15:06:48;97139.81;;;-1.13;97.46
64679;BME280;51094;53.864;27.676;2023-01-30T15:09:17;97141.47;;;-1.12;97.16
64679;BME280;51094;53.864;27.676;2023-01-30T15:11:52;97109.19;;;-1.42;97.55
64679;BME280;51094;53.864;27.676;2023-01-30T15:14:27;97114.38;;;-1.29;97.00
64679;BME280;51094;53.864;27.676;2023-01-30T15:23:22;97067.78;;;-1.61;97.19
64679;BME280;51094;53.864;27.676;2023-01-30T15:31:12;97020.72;;;-1.99;97.04
64679;BME280;51094;53.864;27.676;2023-01-30T15:33:45;97200.19;;;-0.98;96.88
64679;BME280;51094;53.864;27.676;2023-01-30T15:38:55;97196.53;;;-0.94;97.44
64679;BME280;51094;53.864;27.676;2023-01-30T15:41:22;97135.41;;;-1.40;97.47
64679;BME280;51094;53.864;27.676;2023-01-30T15:47:21;97210.28;;;-0.96;97.13
64679;BME280;51094;53.864;27.676;2023-01-30T15:49:54;97208.00;;;-1.01;97.50
64679;BME280;51094;53.864;27.676;2023-01-30T15:52:27;97222.81;;;-1.08;97.58
64679;BME280;51094;53.864;27.676;2023-01-30T15:54:58;97201.25;;;-1.02;97.75
64679;BME280;51094;53.864;27.676;2023-01-30T15:57:31;97162.94;;;-1.30;97.46
64679;BME280;51094;53.864;27.676;2023-01-30T16:00:04;97209.91;;;-1.05;97.60
64679;BME280;51094;53.864;27.676;2023-01-30T16:02:41;97058.75;;;-1.96;98.08
64679;BME280;51094;53.864;27.676;2023-01-30T16:05:15;97223.56;;;-1.06;98.18
64679;BME280;51094;53.864;27.676;2023-01-30T16:07:44;96999.84;;;-2.36;97.97